Time;durP1;ratioP1;P1;durP2;ratioP2;P2;SDS_P1;SDS_P2;PMS_P1;PMS_P2;Temp;Humidity;BMP_temperature;BMP_pressure;BME280_temperature;BME280_humidity;BME280_pressure;Samples;Min_cycle;Max_cycle;Signal;HPM_P1;HPM_P2
2024/04/15 00:01:40;;;;;;;7.00;1.40;;;;;;;12.59;100.00;100430.09;6685623;21;19999;-76
2024/04/15 00:04:08;;;;;;;3.38;1.50;;;;;;;12.56;100.00;100434.78;6677236;21;20050;-76
2024/04/15 00:06:41;;;;;;;8.45;1.63;;;;;;;12.62;100.00;100435.25;6676179;21;20307;-76
2024/04/15 00:09:09;;;;;;;7.05;1.85;;;;;;;12.64;100.00;100438.19;6677821;21;20692;-76
2024/04/15 00:11:42;;;;;;;4.40;1.95;;;;;;;12.63;100.00;100433.91;6630662;21;20032;-77
2024/04/15 00:14:11;;;;;;;6.90;2.00;;;;;;;12.56;100.00;100428.44;6514318;22;20009;-76
2024/04/15 00:16:41;;;;;;;4.95;1.90;;;;;;;12.53;100.00;100410.84;6511776;22;20008;-76
2024/04/15 00:19:09;;;;;;;3.47;1.40;;;;;;;12.46;100.00;100406.09;6514390;22;20005;-77
2024/04/15 00:21:43;;;;;;;3.92;2.20;;;;;;;12.41;100.00;100401.53;6514739;22;20001;-77
2024/04/15 00:24:11;;;;;;;2.90;1.65;;;;;;;12.37;100.00;100399.16;6514462;22;20582;-76
2024/04/15 00:26:47;;;;;;;5.75;1.85;;;;;;;12.31;100.00;100384.75;6513482;22;20709;-76
2024/04/15 00:29:16;;;;;;;2.92;1.50;;;;;;;12.26;100.00;100377.41;6514126;22;20382;-76
2024/04/15 00:31:46;;;;;;;1.98;1.25;;;;;;;12.20;100.00;100363.00;6548032;21;19995;-77
2024/04/15 00:34:14;;;;;;;5.05;1.83;;;;;;;12.17;100.00;100364.88;6676014;21;20532;-76
2024/04/15 00:36:47;;;;;;;4.43;2.25;;;;;;;12.22;100.00;100360.41;6630467;21;20018;-77
2024/04/15 00:39:15;;;;;;;3.78;1.30;;;;;;;12.23;100.00;100356.28;6677805;21;19998;-76
2024/04/15 00:41:46;;;;;;;2.63;1.70;;;;;;;12.31;100.00;100370.13;6678097;21;20015;-76
2024/04/15 00:44:13;;;;;;;10.70;2.15;;;;;;;12.48;100.00;100365.25;6631067;21;19999;-76
2024/04/15 00:46:45;;;;;;;4.60;1.88;;;;;;;12.45;100.00;100371.97;6675890;21;20014;-76
2024/04/15 00:49:13;;;;;;;7.47;2.67;;;;;;;12.39;100.00;100374.28;6630927;21;20014;-76
2024/04/15 00:51:47;;;;;;;6.18;1.52;;;;;;;12.34;100.00;100364.16;6679817;21;20007;-76
2024/04/15 00:54:14;;;;;;;4.05;1.40;;;;;;;12.35;100.00;100367.66;6680810;21;20613;-76
2024/04/15 00:56:45;;;;;;;4.57;1.75;;;;;;;12.29;100.00;100359.56;6671351;21;20503;-75
2024/04/15 00:59:14;;;;;;;2.65;1.58;;;;;;;12.25;100.00;100371.09;6676920;21;19999;-76
2024/04/15 01:01:44;;;;;;;3.50;1.50;;;;;;;12.21;100.00;100373.53;6676166;21;19999;-76
2024/04/15 01:04:11;;;;;;;5.22;2.25;;;;;;;12.15;100.00;100355.66;6676513;21;20280;-77
2024/04/15 01:06:44;;;;;;;2.72;1.42;;;;;;;12.08;100.00;100342.56;6675360;21;20003;-76
2024/04/15 01:09:14;;;;;;;3.03;1.67;;;;;;;11.97;100.00;100338.97;6676616;21;19999;-76
2024/04/15 01:11:44;;;;;;;3.53;1.63;;;;;;;11.87;100.00;100315.91;6675759;21;20023;-77
2024/04/15 01:14:13;;;;;;;2.78;1.38;;;;;;;11.79;100.00;100310.38;6693519;21;20010;-75
2024/04/15 01:16:43;;;;;;;5.95;2.20;;;;;;;11.72;100.00;100299.31;6682397;21;20688;-77
2024/04/15 01:19:11;;;;;;;3.58;2.00;;;;;;;11.70;100.00;100301.97;6675813;21;19999;-76
2024/04/15 01:21:42;;;;;;;3.83;1.65;;;;;;;11.70;100.00;100297.13;6676556;21;20014;-76
2024/04/15 01:24:12;;;;;;;2.90;1.40;;;;;;;11.74;100.00;100291.16;6676596;21;20308;-76
2024/04/15 01:26:47;;;;;;;2.83;1.45;;;;;;;11.86;100.00;100285.84;6675709;21;19999;-76
2024/04/15 01:29:15;;;;;;;4.25;1.80;;;;;;;11.94;100.00;100292.84;6675913;21;20534;-77
2024/04/15 01:31:46;;;;;;;5.15;1.80;;;;;;;12.01;100.00;100285.72;6675915;21;20003;-75
2024/04/15 01:34:14;;;;;;;3.75;1.73;;;;;;;12.10;100.00;100295.44;6676041;21;20027;-76
2024/04/15 01:36:48;;;;;;;4.57;1.63;;;;;;;12.11;100.00;100294.13;6630182;21;20017;-77
2024/04/15 01:39:19;;;;;;;3.75;1.92;;;;;;;12.11;100.00;100286.50;6676547;21;20080;-76
2024/04/15 01:41:50;;;;;;;3.53;2.00;;;;;;;12.13;100.00;100289.47;6627762;21;19994;-77
2024/04/15 01:44:17;;;;;;;3.30;1.65;;;;;;;12.14;100.00;100290.94;6676614;21;20542;-77
2024/04/15 01:46:48;;;;;;;3.60;1.73;;;;;;;12.16;100.00;100298.69;6629280;21;20475;-75
2024/04/15 01:49:16;;;;;;;3.42;1.60;;;;;;;12.13;100.00;100300.59;6676609;21;20038;-76
2024/04/15 01:51:46;;;;;;;2.97;2.00;;;;;;;12.09;100.00;100285.63;6676190;21;20014;-77
2024/04/15 01:54:14;;;;;;;4.10;2.20;;;;;;;12.08;100.00;100281.38;6676105;21;20379;-76
2024/04/15 01:56:47;;;;;;;5.03;2.05;;;;;;;12.13;100.00;100269.25;6628393;21;19999;-76
2024/04/15 01:59:15;;;;;;;4.68;1.55;;;;;;;12.07;100.00;100268.75;6676103;21;20021;-76
2024/04/15 02:01:45;;;;;;;6.40;1.80;;;;;;;12.03;100.00;100271.97;6629398;21;20553;-77
2024/04/15 02:04:15;;;;;;;4.30;1.48;;;;;;;11.99;100.00;100252.16;6676731;21;20501;-76
2024/04/15 02:06:46;;;;;;;6.10;1.83;;;;;;;11.98;100.00;100250.72;6674891;21;20076;-76
2024/04/15 02:09:18;;;;;;;4.63;1.55;;;;;;;11.97;100.00;100244.41;6676141;21;19998;-77
2024/04/15 02:11:50;;;;;;;5.63;2.10;;;;;;;11.96;100.00;100245.72;6673658;21;20009;-76
2024/04/15 02:14:18;;;;;;;2.88;1.42;;;;;;;11.95;100.00;100243.53;6675637;21;20030;-76
2024/04/15 02:16:50;;;;;;;5.43;1.83;;;;;;;11.92;100.00;100234.28;6627746;21;20002;-77
2024/04/15 02:19:18;;;;;;;3.75;2.13;;;;;;;11.94;100.00;100242.03;6676347;21;19998;-76
2024/04/15 02:21:48;;;;;;;4.63;1.83;;;;;;;11.98;100.00;100245.16;6675489;21;20002;-76
2024/04/15 02:24:16;;;;;;;4.60;1.67;;;;;;;12.00;100.00;100248.81;6675237;21;20031;-76
2024/04/15 02:26:46;;;;;;;3.78;1.98;;;;;;;12.03;100.00;100244.16;6675228;21;20019;-76
2024/04/15 02:29:20;;;;;;;3.55;2.00;;;;;;;12.10;100.00;100242.59;6676044;21;20003;-76
2024/04/15 02:31:51;;;;;;;4.80;2.13;;;;;;;12.15;100.00;100244.41;6674048;21;19995;-76
2024/04/15 02:34:18;;;;;;;4.28;2.38;;;;;;;12.09;100.00;100241.13;6629257;21;20294;-76
2024/04/15 02:36:51;;;;;;;3.42;1.75;;;;;;;12.08;100.00;100234.09;6628933;21;20410;-76
2024/04/15 02:39:19;;;;;;;4.15;1.83;;;;;;;12.07;100.00;100240.94;6676278;21;20003;-76
2024/04/15 02:41:50;;;;;;;4.00;1.77;;;;;;;12.03;100.00;100239.31;6675873;21;19999;-76
2024/04/15 02:44:21;;;;;;;3.47;1.83;;;;;;;12.04;100.00;100228.94;6675365;21;20018;-77
2024/04/15 02:46:51;;;;;;;7.30;2.00;;;;;;;12.03;100.00;100227.47;6675971;21;19999;-76
2024/04/15 02:49:19;;;;;;;6.32;1.77;;;;;;;11.96;100.00;100233.88;6677187;21;19995;-76
2024/04/15 02:51:49;;;;;;;7.03;2.13;;;;;;;11.91;100.00;100227.25;6629531;21;20002;-76
2024/04/15 02:54:17;;;;;;;4.03;1.83;;;;;;;11.87;100.00;100220.63;6675522;21;19995;-76
2024/04/15 02:56:47;;;;;;;3.15;1.48;;;;;;;11.84;100.00;100216.91;6675020;21;20534;-76
2024/04/15 02:59:15;;;;;;;3.22;1.73;;;;;;;11.81;100.00;100226.41;6630929;21;20007;-76
2024/04/15 03:01:48;;;;;;;3.08;1.70;;;;;;;11.80;100.00;100225.69;6629893;21;20101;-76
2024/04/15 03:04:16;;;;;;;4.40;1.98;;;;;;;11.82;100.00;100217.50;6675228;21;20039;-76
2024/04/15 03:06:48;;;;;;;6.60;1.85;;;;;;;11.83;100.00;100210.63;6628363;21;20547;-76
2024/04/15 03:09:20;;;;;;;3.83;1.90;;;;;;;11.88;100.00;100211.72;6676230;21;20309;-75
2024/04/15 03:11:51;;;;;;;5.82;1.80;;;;;;;12.02;100.00;100220.47;6631423;21;19999;-76
2024/04/15 03:14:19;;;;;;;3.30;1.60;;;;;;;11.95;100.00;100230.34;6638821;21;20003;-75
2024/04/15 03:16:53;;;;;;;5.25;1.85;;;;;;;11.88;100.00;100222.09;6682448;21;19999;-77
2024/04/15 03:19:21;;;;;;;6.35;2.25;;;;;;;11.89;100.00;100232.63;6677239;21;20018;-76
2024/04/15 03:21:53;;;;;;;3.88;1.58;;;;;;;11.93;100.00;100230.19;6679270;21;20000;-77
2024/04/15 03:24:21;;;;;;;3.58;2.15;;;;;;;11.89;100.00;100235.41;6634470;21;20010;-76
2024/04/15 03:26:51;;;;;;;2.92;1.63;;;;;;;11.84;100.00;100236.38;6634901;21;20076;-75
2024/04/15 03:29:19;;;;;;;3.13;2.10;;;;;;;11.80;100.00;100219.38;6686113;21;20003;-77
2024/04/15 03:31:49;;;;;;;4.63;2.00;;;;;;;11.77;100.00;100223.28;6680266;21;20003;-77
2024/04/15 03:34:19;;;;;;;6.03;2.13;;;;;;;11.72;100.00;100213.16;6585474;21;20023;-76
2024/04/15 03:36:50;;;;;;;3.55;1.63;;;;;;;11.67;100.00;100216.94;6675778;21;20486;-76
2024/04/15 03:39:27;;;;;;;6.32;1.90;;;;;;;11.62;100.00;100215.88;6678730;21;20085;-77
2024/04/15 03:41:54;;;;;;;8.35;1.80;;;;;;;11.59;100.00;100214.97;6631634;21;20769;-75
2024/04/15 03:44:25;;;;;;;2.85;1.85;;;;;;;11.59;100.00;100225.34;6684350;21;20443;-75
2024/04/15 03:46:53;;;;;;;4.70;2.17;;;;;;;11.57;100.00;100219.63;6591950;21;20415;-77
2024/04/15 03:49:28;;;;;;;5.20;2.30;;;;;;;11.54;100.00;100213.16;6677663;21;20010;-76
2024/04/15 03:51:55;;;;;;;3.10;1.70;;;;;;;11.53;100.00;100211.72;6677662;21;20003;-76
2024/04/15 03:54:26;;;;;;;3.50;1.85;;;;;;;11.54;100.00;100206.88;6677466;21;20506;-76
2024/04/15 03:56:54;;;;;;;6.75;2.60;;;;;;;11.61;100.00;100212.34;6678096;21;20014;-77
2024/04/15 03:59:24;;;;;;;4.78;2.08;;;;;;;11.59;100.00;100209.41;6631708;21;19999;-77
2024/04/15 04:01:53;;;;;;;4.03;1.80;;;;;;;11.58;100.00;100213.50;6679225;21;20031;-76
2024/04/15 04:04:39;;;;;;;3.75;1.92;;;;;;;11.58;100.00;100221.13;6679598;21;20000;-75
2024/04/15 04:07:10;;;;;;;6.82;2.28;;;;;;;11.56;100.00;100220.94;6676853;21;20003;-77
2024/04/15 04:09:42;;;;;;;5.00;2.10;;;;;;;11.58;100.00;100229.44;6677011;21;20003;-77
2024/04/15 04:12:10;;;;;;;3.63;1.67;;;;;;;11.60;100.00;100216.44;6677897;21;20010;-76
2024/04/15 04:14:41;;;;;;;3.22;1.48;;;;;;;11.57;100.00;100214.06;6677386;21;20018;-77
2024/04/15 04:17:09;;;;;;;3.00;1.70;;;;;;;11.53;100.00;100222.81;6679446;21;19999;-76
2024/04/15 04:19:41;;;;;;;3.97;1.95;;;;;;;11.57;100.00;100225.19;6646282;21;20003;-77
2024/04/15 04:22:10;;;;;;;3.00;1.95;;;;;;;11.62;100.00;100229.75;6681564;21;20788;-77
2024/04/15 04:24:42;;;;;;;5.30;2.33;;;;;;;11.61;100.00;100223.47;6677096;21;20003;-78
2024/04/15 04:27:10;;;;;;;9.25;2.15;;;;;;;11.60;100.00;100222.00;6675863;21;20438;-77
2024/04/15 04:29:40;;;;;;;4.63;2.20;;;;;;;11.63;100.00;100214.56;6676880;21;20057;-78
2024/04/15 04:32:08;;;;;;;3.60;2.08;;;;;;;11.63;100.00;100220.13;6631429;21;19999;-76
2024/04/15 04:34:43;;;;;;;;;;;;;;;11.59;100.00;100212.19;6677559;21;20002;-77
2024/04/15 04:37:11;;;;;;;4.22;1.95;;;;;;;11.59;100.00;100217.75;6676217;21;19986;-78
2024/04/15 04:39:45;;;;;;;3.17;1.83;;;;;;;11.61;100.00;100226.25;6630905;21;19999;-77
2024/04/15 04:42:13;;;;;;;6.18;2.45;;;;;;;11.61;100.00;100228.28;6677787;21;20017;-77
2024/04/15 04:44:45;;;;;;;5.32;2.15;;;;;;;11.58;100.00;100210.00;6682125;21;20003;-75
2024/04/15 04:47:15;;;;;;;6.35;2.45;;;;;;;11.59;100.00;100205.91;6707379;21;19999;-75
2024/04/15 04:49:56;;;;;;;3.90;1.75;;;;;;;11.59;100.00;100212.19;6486637;22;20057;-79
2024/04/15 04:52:23;;;;;;;3.88;2.20;;;;;;;11.60;100.00;100210.91;6462707;22;20621;-77
2024/04/15 04:54:53;;;;;;;5.40;2.50;;;;;;;11.61;100.00;100220.69;6462787;22;19998;-78
2024/04/15 04:57:21;;;;;;;4.88;2.80;;;;;;;11.67;100.00;100228.03;6422117;22;20021;-75
2024/04/15 04:59:57;;;;;;;9.88;2.47;;;;;;;11.78;100.00;100241.47;6462412;22;19998;-78
2024/04/15 05:02:25;;;;;;;5.15;2.70;;;;;;;11.80;100.00;100233.28;6420440;22;20464;-79
2024/04/15 05:04:59;;;;;;;5.55;2.97;;;;;;;11.84;100.00;100242.69;6461634;22;20002;-76
2024/04/15 05:07:28;;;;;;;5.15;2.50;;;;;;;11.87;100.00;100251.19;6524536;21;20007;-79
2024/04/15 05:09:59;;;;;;;5.03;2.80;;;;;;;11.91;100.00;100257.09;6676434;21;20003;-78
2024/04/15 05:12:31;;;;;;;6.38;3.38;;;;;;;11.95;100.00;100255.38;6630826;21;19999;-77
2024/04/15 05:15:02;;;;;;;5.90;2.45;;;;;;;11.95;100.00;100249.09;6585736;21;20011;-78
2024/04/15 05:17:30;;;;;;;5.72;3.08;;;;;;;11.99;100.00;100260.50;6673483;21;20007;-78
2024/04/15 05:20:07;;;;;;;10.20;3.08;;;;;;;11.96;100.00;100250.53;6674821;21;20007;-77
2024/04/15 05:22:35;;;;;;;5.10;3.00;;;;;;;11.95;100.00;100252.59;6681564;21;20014;-77
2024/04/15 05:25:06;;;;;;;6.70;2.80;;;;;;;11.95;100.00;100265.78;6677329;21;20072;-78
2024/04/15 05:27:35;;;;;;;5.35;2.70;;;;;;;11.95;100.00;100277.63;6677430;21;19991;-77
2024/04/15 05:30:09;;;;;;;5.45;2.60;;;;;;;11.93;100.00;100276.72;6677077;21;19999;-78
2024/04/15 05:32:37;;;;;;;6.25;2.90;;;;;;;11.90;100.00;100272.31;6629744;21;20455;-78
2024/04/15 05:35:14;;;;;;;6.20;2.95;;;;;;;11.94;100.00;100267.81;6674043;21;19995;-77
2024/04/15 05:37:44;;;;;;;6.80;3.08;;;;;;;11.86;100.00;100274.72;6676517;21;20388;-77
2024/04/15 05:40:16;;;;;;;15.68;2.80;;;;;;;11.81;100.00;100268.09;6677630;21;20072;-77
2024/04/15 05:42:46;;;;;;;12.20;3.42;;;;;;;11.76;100.00;100277.44;6693059;21;20436;-76
2024/04/15 05:45:16;;;;;;;5.50;2.20;;;;;;;11.70;100.00;100274.16;6692224;21;20003;-78
2024/04/15 05:47:43;;;;;;;4.03;2.42;;;;;;;11.57;100.00;100262.06;6676712;21;20003;-78
2024/04/15 05:50:17;;;;;;;10.05;2.35;;;;;;;11.52;100.00;100259.50;6630544;21;20011;-77
2024/04/15 05:52:45;;;;;;;6.32;2.88;;;;;;;11.52;100.00;100251.94;6629698;21;20003;-78
2024/04/15 05:55:15;;;;;;;7.57;2.78;;;;;;;11.54;100.00;100252.06;6673366;21;20002;-77
2024/04/15 05:57:46;;;;;;;4.90;2.80;;;;;;;11.53;100.00;100252.66;6676524;21;20011;-77
2024/04/15 06:00:17;;;;;;;8.32;2.55;;;;;;;11.54;100.00;100249.28;6674348;21;20017;-77
2024/04/15 06:02:45;;;;;;;7.25;2.90;;;;;;;11.53;100.00;100244.31;6675982;21;20018;-77
2024/04/15 06:05:19;;;;;;;5.00;2.10;;;;;;;11.55;100.00;100241.72;6674846;21;20030;-77
2024/04/15 06:07:47;;;;;;;9.32;3.58;;;;;;;11.57;100.00;100239.84;6675919;21;20003;-75
2024/04/15 06:10:17;;;;;;;5.10;3.28;;;;;;;11.56;100.00;100248.72;6673319;21;20013;-78
2024/04/15 06:12:47;;;;;;;3.08;1.95;;;;;;;11.57;100.00;100248.16;6676091;21;20041;-76
2024/04/15 06:15:18;;;;;;;5.47;2.50;;;;;;;11.58;100.00;100240.56;6628028;21;20006;-78
2024/04/15 06:17:46;;;;;;;4.57;2.65;;;;;;;11.63;100.00;100243.09;6674855;21;20577;-77
2024/04/15 06:20:20;;;;;;;13.80;2.97;;;;;;;11.70;100.00;100241.53;6675953;21;19999;-77
2024/04/15 06:22:49;;;;;;;3.85;2.38;;;;;;;11.75;100.00;100235.00;6676711;21;20703;-78
2024/04/15 06:25:20;;;;;;;6.28;2.83;;;;;;;11.90;100.00;100228.56;6675606;21;19994;-77
2024/04/15 06:27:50;;;;;;;7.80;3.33;;;;;;;12.07;100.00;100235.38;6687848;21;19999;-77
2024/04/15 06:30:20;;;;;;;5.60;3.35;;;;;;;12.04;100.00;100240.81;6688330;21;20077;-75
2024/04/15 06:32:48;;;;;;;10.27;4.22;;;;;;;12.09;100.00;100238.34;6678783;21;20015;-78
2024/04/15 06:35:24;;;;;;;4.38;2.50;;;;;;;12.07;100.00;100236.16;6674714;21;20624;-77
2024/04/15 06:37:53;;;;;;;5.78;2.90;;;;;;;12.04;100.00;100240.81;6676341;21;20006;-78
2024/04/15 06:40:24;;;;;;;8.82;3.10;;;;;;;12.08;100.00;100239.66;6629318;21;20014;-78
2024/04/15 06:42:53;;;;;;;5.65;2.83;;;;;;;12.16;100.00;100229.16;6676722;21;20092;-78
2024/04/15 06:45:24;;;;;;;5.28;3.15;;;;;;;12.27;100.00;100232.16;6627249;21;20002;-78
2024/04/15 06:47:53;;;;;;;5.30;3.08;;;;;;;12.53;100.00;100237.56;6675620;21;20703;-77
2024/04/15 06:50:26;;;;;;;6.03;2.77;;;;;;;12.37;100.00;100235.00;6675723;21;20077;-78
2024/04/15 06:52:54;;;;;;;5.20;2.70;;;;;;;12.58;100.00;100223.38;6676430;21;20011;-79
2024/04/15 06:55:24;;;;;;;9.35;3.65;;;;;;;12.95;100.00;100220.59;6628945;21;19999;-78
2024/04/15 06:57:56;;;;;;;5.85;3.40;;;;;;;13.21;100.00;100224.63;6632787;21;20018;-78
2024/04/15 07:00:28;;;;;;;5.80;2.80;;;;;;;13.42;100.00;100215.72;6674598;21;20331;-77
2024/04/15 07:02:56;;;;;;;8.43;3.17;;;;;;;13.31;100.00;100210.75;6675843;21;20003;-77
2024/04/15 07:05:29;;;;;;;6.93;3.40;;;;;;;13.53;100.00;100225.56;6674188;21;20083;-77
2024/04/15 07:07:57;;;;;;;6.43;2.85;;;;;;;13.46;100.00;100216.03;6675930;21;19999;-78
2024/04/15 07:10:27;;;;;;;5.28;2.90;;;;;;;13.32;100.00;100217.78;6676553;21;20003;-77
2024/04/15 07:12:56;;;;;;;5.38;2.65;;;;;;;13.62;100.00;100216.47;6678538;21;19999;-77
2024/04/15 07:15:28;;;;;;;5.15;2.40;;;;;;;13.82;100.00;100210.88;6630950;21;20002;-77
2024/04/15 07:17:56;;;;;;;8.05;2.53;;;;;;;13.75;100.00;100202.09;6675760;21;20003;-77
2024/04/15 07:20:29;;;;;;;5.10;2.80;;;;;;;13.33;100.00;100196.97;6677336;21;20003;-78
2024/04/15 07:23:17;;;;;;;7.95;3.47;;;;;;;13.50;100.00;100193.28;6676755;21;20030;-79
2024/04/15 07:30:27;;;;;;;4.78;2.38;;;;;;;13.29;100.00;100185.50;6408960;22;20413;-79
2024/04/15 07:32:54;;;;;;;4.13;2.25;;;;;;;13.48;100.00;100177.16;6539857;21;20003;-77
2024/04/15 07:35:25;;;;;;;5.70;2.38;;;;;;;13.70;100.00;100178.03;6677028;21;20002;-78
2024/04/15 07:38:01;;;;;;;5.30;2.13;;;;;;;13.57;100.00;100169.38;6676173;21;19995;-79
2024/04/15 07:40:37;;;;;;;5.40;2.00;;;;;;;13.46;100.00;100148.41;6678360;21;20014;-80
2024/04/15 07:43:05;;;;;;;4.93;2.15;;;;;;;13.74;100.00;100142.06;6634456;21;20018;-78
2024/04/15 07:45:37;;;;;;;7.38;2.03;;;;;;;13.63;100.00;100150.31;6689446;21;20031;-79
2024/04/15 07:48:05;;;;;;;4.18;1.65;;;;;;;13.62;100.00;100132.84;6640791;21;20049;-78
2024/04/15 07:50:35;;;;;;;5.53;2.25;;;;;;;13.92;100.00;100139.84;6683444;21;19995;-77
2024/04/15 07:53:26;;;;;;;5.82;1.77;;;;;;;14.53;100.00;100134.19;6632892;21;19999;-78
2024/04/15 07:55:57;;;;;;;3.03;1.48;;;;;;;14.95;100.00;100125.16;6689470;21;19995;-78
2024/04/15 07:58:30;;;;;;;2.75;1.33;;;;;;;15.40;100.00;100114.06;6694134;21;20431;-76
2024/04/15 08:01:06;;;;;;;4.53;1.55;;;;;;;15.64;100.00;100102.97;6677085;21;19998;-78
2024/04/15 08:03:34;;;;;;;3.40;1.13;;;;;;;15.67;100.00;100096.16;6630620;21;20013;-78
2024/04/15 08:06:05;;;;;;;3.65;1.63;;;;;;;15.90;100.00;100092.72;6676545;21;20081;-78
2024/04/15 08:08:37;;;;;;;4.10;1.13;;;;;;;16.38;100.00;100096.25;6678756;21;20007;-79
2024/04/15 08:11:08;;;;;;;10.57;1.38;;;;;;;16.68;100.00;100100.13;6631618;21;20014;-78
2024/04/15 08:13:35;;;;;;;8.63;1.55;;;;;;;16.98;100.00;100093.47;6631304;21;19995;-78
2024/04/15 08:16:06;;;;;;;5.07;1.83;;;;;;;16.97;100.00;100108.13;6675146;21;20037;-78
2024/04/15 08:18:34;;;;;;;5.78;1.38;;;;;;;17.09;100.00;100108.09;6628527;21;20002;-76
2024/04/15 08:41:04;;;;;;;;;;;;;;;;;;;;;
2024/04/15 11:17:55;;;;;;;3.28;0.60;;;;;;;17.17;77.76;99831.03;6636822;21;20375;-78
2024/04/15 11:20:24;;;;;;;0.70;0.30;;;;;;;17.27;78.23;99819.63;6629562;21;19999;-78
2024/04/15 11:22:56;;;;;;;2.08;0.57;;;;;;;17.35;76.43;99814.41;6585531;21;20018;-77
2024/04/15 11:25:24;;;;;;;4.05;0.50;;;;;;;18.03;74.35;99805.22;6731462;21;20004;-77
2024/04/15 11:27:59;;;;;;;0.93;0.22;;;;;;;18.09;72.73;99798.44;6791160;21;20016;-77
2024/04/15 11:30:29;;;;;;;0.43;0.17;;;;;;;18.28;79.47;99783.91;6791115;21;19998;-78
2024/04/15 11:33:57;;;;;;;3.15;0.77;;;;;;;17.67;72.28;99786.56;6785136;21;19993;-78
2024/04/15 11:38:15;;;;;;;1.25;0.40;;;;;;;19.79;67.50;99770.13;6645196;21;20014;-77
2024/04/15 12:09:15;;;;;;;0.70;0.20;;;;;;;19.43;58.95;99699.69;6608005;21;20000;-78
2024/04/15 12:11:46;;;;;;;1.10;0.45;;;;;;;20.08;56.91;99690.34;6634341;21;20036;-77
2024/04/15 12:14:19;;;;;;;0.98;0.30;;;;;;;19.77;57.13;99685.59;6633923;21;20038;-78
2024/04/15 12:16:50;;;;;;;2.33;0.20;;;;;;;19.74;59.09;99682.00;6629533;21;20012;-78
2024/04/15 12:19:21;;;;;;;2.55;0.40;;;;;;;20.23;56.44;99673.94;6625486;21;20000;-77
2024/04/15 12:21:57;;;;;;;0.40;0.20;;;;;;;20.77;51.91;99666.81;6628563;21;20297;-82
2024/04/15 12:24:36;;;;;;;1.15;0.30;;;;;;;20.44;53.31;99673.34;6651884;21;20007;-77
2024/04/15 12:27:15;;;;;;;1.55;0.43;;;;;;;20.01;53.03;99668.94;6632929;21;20003;-79
2024/04/15 12:29:51;;;;;;;4.68;0.52;;;;;;;19.38;55.50;99663.63;6623090;21;20032;-79
2024/04/15 12:32:19;;;;;;;1.00;0.45;;;;;;;19.38;54.81;99652.38;6621099;21;20606;-78
2024/04/15 12:34:51;;;;;;;0.88;0.28;;;;;;;19.38;52.45;99641.84;6622780;21;20010;-78
2024/04/15 12:37:19;;;;;;;1.50;0.40;;;;;;;19.69;54.71;99632.53;6620533;21;20336;-79
2024/04/15 12:39:53;;;;;;;4.05;0.55;;;;;;;19.58;51.75;99618.69;6620589;21;20014;-79
2024/04/15 12:42:23;;;;;;;0.45;0.08;;;;;;;19.38;51.68;99624.25;6622705;21;20000;-79
2024/04/15 12:44:53;;;;;;;2.08;0.35;;;;;;;18.46;54.54;99623.94;6620997;21;20000;-79
2024/04/15 12:47:21;;;;;;;2.10;0.30;;;;;;;18.68;52.22;99610.13;6621098;21;20620;-78
2024/04/15 12:49:51;;;;;;;5.75;0.50;;;;;;;18.63;52.69;99616.94;6623760;21;20085;-79
2024/04/15 12:52:19;;;;;;;1.33;0.30;;;;;;;19.64;52.76;99616.13;6621891;21;20569;-78
2024/04/15 12:54:49;;;;;;;1.23;0.50;;;;;;;19.17;52.41;99600.22;6620861;21;20472;-78
2024/04/15 12:57:23;;;;;;;1.45;0.45;;;;;;;19.39;51.92;99603.91;6624323;21;19999;-79
2024/04/15 12:59:54;;;;;;;2.22;1.00;;;;;;;19.31;51.00;99604.31;6621299;21;20077;-78
2024/04/15 13:02:21;;;;;;;1.02;0.60;;;;;;;19.55;49.76;99586.94;6621552;21;20004;-78
2024/04/15 13:04:52;;;;;;;3.25;0.50;;;;;;;19.80;51.57;99582.28;6621374;21;20035;-78
2024/04/15 13:07:20;;;;;;;3.95;0.50;;;;;;;19.70;50.60;99569.25;6525100;21;20019;-79
2024/04/15 13:09:51;;;;;;;0.95;0.28;;;;;;;19.24;50.52;99566.06;6524904;21;20004;-78
2024/04/15 13:12:19;;;;;;;0.95;0.30;;;;;;;19.39;51.67;99558.91;6524985;21;20000;-79
2024/04/15 13:14:52;;;;;;;5.40;1.15;;;;;;;19.47;51.43;99544.44;6523721;21;20019;-78
2024/04/15 13:17:22;;;;;;;2.35;0.70;;;;;;;19.77;50.66;99545.59;6567460;21;20016;-79
2024/04/15 13:19:57;;;;;;;1.33;0.45;;;;;;;19.70;49.86;99532.69;6569522;21;20400;-79
2024/04/15 13:22:25;;;;;;;1.70;0.40;;;;;;;20.24;48.20;99526.84;6524859;21;20000;-79
2024/04/15 13:24:58;;;;;;;5.82;0.55;;;;;;;20.22;46.66;99521.16;6569620;21;19996;-79
2024/04/15 13:27:26;;;;;;;3.50;0.35;;;;;;;20.25;46.72;99516.31;6524847;21;20001;-78
2024/04/15 13:29:59;;;;;;;0.35;0.13;;;;;;;20.21;46.03;99519.00;6524498;21;20011;-79
2024/04/15 13:32:30;;;;;;;4.97;0.35;;;;;;;20.48;45.01;99512.19;6523958;21;20051;-78
2024/04/15 13:35:01;;;;;;;2.45;0.47;;;;;;;20.93;45.21;99497.47;6523857;21;20673;-79
2024/04/15 13:37:31;;;;;;;0.40;0.10;;;;;;;20.67;43.73;99496.59;6524329;21;20012;-79
2024/04/15 13:40:02;;;;;;;0.70;0.20;;;;;;;20.21;44.98;99477.47;6570331;21;20029;-78
2024/04/15 13:42:30;;;;;;;1.67;0.20;;;;;;;20.15;42.54;99486.44;6569935;21;20008;-79
2024/04/15 14:46:18;;;;;;;3.35;0.55;;;;;;;18.10;40.63;99416.06;6205107;22;20127;-77
2024/04/15 15:05:23;;;;;;;0.77;0.20;;;;;;;16.60;44.94;99405.13;6143107;22;20084;-78
2024/04/15 15:11:51;;;;;;;3.70;1.13;;;;;;;16.34;45.00;99408.84;6067874;21;20365;-77
2024/04/15 15:15:13;;;;;;;1.95;0.47;;;;;;;16.48;44.31;99394.06;6519371;21;20001;-78
2024/04/15 15:18:04;;;;;;;3.17;0.30;;;;;;;16.81;44.01;99395.63;6579387;21;20019;-75
2024/04/15 15:24:33;;;;;;;0.45;0.20;;;;;;;16.84;42.93;99375.50;6557526;21;19993;-75
2024/04/15 15:27:01;;;;;;;1.65;0.28;;;;;;;16.89;43.47;99351.91;6598239;21;20064;-74
2024/04/15 15:29:34;;;;;;;1.25;0.20;;;;;;;16.86;43.54;99355.22;6555208;21;19997;-74
2024/04/15 15:32:06;;;;;;;2.58;0.43;;;;;;;16.98;43.32;99355.78;6593444;21;20003;-77
2024/04/15 15:34:40;;;;;;;1.10;0.30;;;;;;;17.01;43.39;99362.91;6526311;21;20048;-77
2024/04/15 15:37:08;;;;;;;5.88;0.85;;;;;;;17.05;43.74;99354.72;6566606;21;20028;-77
2024/04/15 15:39:38;;;;;;;1.75;0.28;;;;;;;17.06;43.55;99350.56;6567589;21;20005;-79
2024/04/15 15:42:08;;;;;;;3.35;1.08;;;;;;;17.06;44.20;99350.56;6566294;21;20016;-78
2024/04/15 15:44:38;;;;;;;1.05;0.20;;;;;;;17.12;44.47;99344.50;6567158;21;20009;-76
2024/04/15 15:47:09;;;;;;;0.68;0.10;;;;;;;17.40;44.17;99342.22;6566295;21;20063;-77
2024/04/15 15:49:43;;;;;;;0.98;0.50;;;;;;;17.30;42.94;99336.19;6566552;21;20041;-78
2024/04/15 15:52:14;;;;;;;2.88;0.22;;;;;;;17.22;43.48;99333.75;6566535;21;20004;-77
2024/04/15 15:54:48;;;;;;;1.85;0.20;;;;;;;17.19;43.21;99338.53;6523753;21;20715;-77
2024/04/15 15:57:16;;;;;;;9.88;0.68;;;;;;;17.01;42.67;99348.19;6565619;21;19992;-78
2024/04/15 15:59:50;;;;;;;1.03;0.30;;;;;;;17.13;41.65;99357.88;6523107;21;19997;-78
2024/04/15 16:02:21;;;;;;;1.10;0.22;;;;;;;16.98;40.94;99324.97;6523424;21;20007;-78
2024/04/15 16:05:06;;;;;;;3.60;0.30;;;;;;;16.88;40.70;99349.72;6565570;21;20004;-78
2024/04/15 16:07:42;;;;;;;0.63;0.10;;;;;;;17.01;40.70;99328.59;6566223;21;20004;-78
2024/04/15 16:10:13;;;;;;;4.53;0.20;;;;;;;17.11;40.70;99324.16;6480969;21;20114;-79
2024/04/15 16:12:43;;;;;;;6.10;0.73;;;;;;;17.41;40.45;99336.00;6567486;21;20028;-78
2024/04/15 16:15:15;;;;;;;0.45;0.10;;;;;;;17.22;40.57;99316.91;6574777;21;20004;-77
2024/04/15 16:17:46;;;;;;;1.23;0.10;;;;;;;17.01;41.63;99312.50;6578496;21;20012;-77
2024/04/15 16:20:17;;;;;;;1.73;0.22;;;;;;;16.76;43.25;99305.78;6633809;21;20014;-77
2024/04/15 16:22:45;;;;;;;4.85;0.30;;;;;;;16.76;42.28;99308.59;6676585;21;20007;-76
2024/04/15 16:25:16;;;;;;;3.47;0.32;;;;;;;16.61;43.40;99312.06;6673920;21;19999;-76
2024/04/15 16:27:45;;;;;;;1.10;0.68;;;;;;;16.59;42.92;99314.78;6677785;21;19991;-77
2024/04/15 16:30:18;;;;;;;1.38;0.13;;;;;;;16.45;43.41;99305.72;6677164;21;20010;-76
2024/04/15 16:32:49;;;;;;;0.20;0.08;;;;;;;16.23;43.89;99311.00;6677757;21;20007;-77
2024/04/15 16:35:23;;;;;;;1.80;0.20;;;;;;;16.06;44.26;99292.72;6681967;21;20006;-78
2024/04/15 16:37:52;;;;;;;1.30;0.20;;;;;;;16.01;45.18;99314.16;6681246;21;20007;-79